createdAt,value
2018-09-21T03:00:57.120Z,14.99
2018-09-21T03:01:56.943Z,15.06
2018-09-21T03:02:57.225Z,14.99
2018-09-21T03:03:56.954Z,14.92
2018-09-21T03:04:57.565Z,15.00
2018-09-21T03:05:57.508Z,15.02
2018-09-21T03:06:58.079Z,14.96
2018-09-21T03:08:58.020Z,15.07
2018-09-21T03:09:58.894Z,15.02
2018-09-21T03:10:58.602Z,14.97
2018-09-21T03:11:58.900Z,15.04
2018-09-21T03:12:58.797Z,15.00
2018-09-21T03:13:58.931Z,15.02
2018-09-21T03:14:59.224Z,15.09
2018-09-21T03:15:59.764Z,15.04
2018-09-21T03:16:59.499Z,15.02
2018-09-21T03:18:00.962Z,15.06
2018-09-21T03:18:58.327Z,15.04
2018-09-21T03:19:57.831Z,15.11
2018-09-21T03:20:58.001Z,15.10
2018-09-21T03:21:58.046Z,15.09
2018-09-21T03:22:58.243Z,15.14
2018-09-21T03:23:58.439Z,15.19
2018-09-21T03:24:58.551Z,15.11
2018-09-21T03:25:58.698Z,15.11
2018-09-21T03:26:58.917Z,15.06
2018-09-21T03:27:59.043Z,15.14
2018-09-21T03:28:59.245Z,15.18
2018-09-21T03:29:59.531Z,15.25
2018-09-21T03:30:59.617Z,15.11
2018-09-21T03:31:59.731Z,15.18
2018-09-21T03:32:59.984Z,15.15
2018-09-21T03:34:00.066Z,15.14
2018-09-21T03:35:00.213Z,15.24
2018-09-21T03:36:00.408Z,15.21
2018-09-21T03:37:00.545Z,15.22
2018-09-21T03:38:00.633Z,15.24
2018-09-21T03:39:00.864Z,15.25
2018-09-21T03:40:01.039Z,15.19
2018-09-21T03:41:01.207Z,15.21
2018-09-21T03:42:01.362Z,15.22
2018-09-21T03:43:01.542Z,15.19
2018-09-21T03:44:01.738Z,15.21
2018-09-21T03:45:01.885Z,15.11
2018-09-21T03:46:01.989Z,15.10
2018-09-21T03:47:02.279Z,15.10
2018-09-21T03:48:02.312Z,15.11
2018-09-21T03:49:02.570Z,15.19
2018-09-21T03:50:02.726Z,15.09
2018-09-21T03:51:02.865Z,15.10
2018-09-21T03:52:03.074Z,15.10
2018-09-21T03:53:03.191Z,15.17
2018-09-21T03:54:03.379Z,15.07
2018-09-21T03:55:03.481Z,15.07
2018-09-21T03:56:03.791Z,15.10
2018-09-21T03:57:04.018Z,14.96
2018-09-21T03:58:04.026Z,14.94
2018-09-21T03:59:04.309Z,14.94
2018-09-21T04:00:04.457Z,14.97
2018-09-21T04:01:04.835Z,14.97
2018-09-21T04:02:04.766Z,14.85
2018-09-21T04:03:04.877Z,14.89
2018-09-21T04:04:05.078Z,14.92
2018-09-21T04:05:05.207Z,14.85
2018-09-21T04:06:05.472Z,14.79
2018-09-21T04:07:05.557Z,14.72
2018-09-21T04:08:05.710Z,14.79
2018-09-21T04:09:05.933Z,14.73
2018-09-21T04:10:06.151Z,14.66
2018-09-21T04:11:06.293Z,14.65
2018-09-21T04:12:06.513Z,14.60
2018-09-21T04:13:06.530Z,14.59
2018-09-21T04:14:06.796Z,14.55
2018-09-21T04:15:06.994Z,14.43
2018-09-21T04:16:07.097Z,14.50
2018-09-21T04:17:07.151Z,14.54
2018-09-21T04:18:07.401Z,14.54
2018-09-21T04:19:07.433Z,14.54
2018-09-21T04:20:07.858Z,14.58
2018-09-21T04:21:07.799Z,14.60
2018-09-21T04:22:07.936Z,14.58
2018-09-21T04:23:08.244Z,14.65
2018-09-21T04:24:08.317Z,14.60
2018-09-21T04:25:08.525Z,14.62
2018-09-21T04:26:08.764Z,14.78
2018-09-21T04:27:09.161Z,14.69
2018-09-21T04:28:09.118Z,14.62
2018-09-21T04:29:09.294Z,14.60
2018-09-21T04:30:09.379Z,14.55
2018-09-21T04:31:09.635Z,14.58
2018-09-21T04:32:09.795Z,14.62
2018-09-21T04:33:10.044Z,14.66
2018-09-21T04:34:10.161Z,14.63
2018-09-21T04:35:10.229Z,14.69
2018-09-21T04:36:10.565Z,14.73
2018-09-21T04:37:12.836Z,14.82
2018-09-21T04:38:10.808Z,14.81
2018-09-21T04:39:10.985Z,14.82
2018-09-21T04:40:11.294Z,14.94
2018-09-21T04:41:11.364Z,15.03
2018-09-21T04:42:11.685Z,15.04
2018-09-21T04:43:11.768Z,15.06
2018-09-21T04:44:12.059Z,15.19
2018-09-21T04:45:12.295Z,15.27
2018-09-21T04:46:12.481Z,15.43
2018-09-21T04:47:12.788Z,15.52
2018-09-21T04:48:12.717Z,15.58
2018-09-21T04:49:12.966Z,15.58
2018-09-21T04:50:13.148Z,15.62
2018-09-21T04:51:13.279Z,15.64
2018-09-21T04:52:13.916Z,15.73
2018-09-21T04:53:13.683Z,15.83
2018-09-21T04:54:13.869Z,15.86
2018-09-21T04:55:13.972Z,15.98
2018-09-21T04:56:14.134Z,16.10
2018-09-21T04:57:14.300Z,16.20
2018-09-21T04:58:14.512Z,16.29
2018-09-21T04:59:14.697Z,16.38
2018-09-21T05:00:14.832Z,16.56
2018-09-21T05:01:14.997Z,16.56
2018-09-21T05:02:15.147Z,16.56
2018-09-21T05:03:15.415Z,16.64
2018-09-21T05:04:15.490Z,16.76
2018-09-21T05:05:15.652Z,16.71
2018-09-21T05:06:15.837Z,16.75
2018-09-21T05:07:15.977Z,16.68
2018-09-21T05:08:16.219Z,16.78
2018-09-21T05:09:16.326Z,16.76
2018-09-21T05:10:16.640Z,16.71
2018-09-21T05:11:16.667Z,16.79
2018-09-21T05:12:16.824Z,16.74
2018-09-21T05:13:17.105Z,16.74
2018-09-21T05:14:17.195Z,16.83
2018-09-21T05:15:17.710Z,16.83
2018-09-21T05:16:17.511Z,16.84
2018-09-21T05:17:17.663Z,16.86
2018-09-21T05:18:17.869Z,16.89
2018-09-21T05:19:17.998Z,16.96
2018-09-21T05:20:18.267Z,16.89
2018-09-21T05:21:18.298Z,16.93
2018-09-21T05:22:18.528Z,16.97
2018-09-21T05:23:18.804Z,16.99
2018-09-21T05:24:18.948Z,17.02
2018-09-21T05:25:19.016Z,17.08
2018-09-21T05:26:19.160Z,17.01
2018-09-21T05:27:20.337Z,17.01
2018-09-21T05:28:19.615Z,17.02
2018-09-21T05:29:22.038Z,17.11
2018-09-21T05:30:21.002Z,16.96
2018-09-21T05:31:20.340Z,17.04
2018-09-21T05:32:20.326Z,17.19
2018-09-21T05:33:21.357Z,17.11
2018-09-21T05:34:20.677Z,17.05
2018-09-21T05:35:20.756Z,17.14
2018-09-21T05:36:20.916Z,17.06
2018-09-21T05:37:21.143Z,17.19
2018-09-21T05:38:21.761Z,17.09
2018-09-21T05:39:21.616Z,17.11
2018-09-21T05:40:21.631Z,17.05
2018-09-21T05:41:21.909Z,17.08
2018-09-21T05:42:22.093Z,17.02
2018-09-21T05:43:22.045Z,17.14
2018-09-21T05:44:22.284Z,17.11
2018-09-21T05:45:22.569Z,17.19
2018-09-21T05:46:22.663Z,17.14
2018-09-21T05:47:22.726Z,17.14
2018-09-21T05:48:23.103Z,17.06
2018-09-21T05:49:23.093Z,17.20
2018-09-21T05:50:23.301Z,17.16
2018-09-21T05:51:23.505Z,17.26
2018-09-21T05:52:23.589Z,17.27
2018-09-21T05:53:23.854Z,17.31
2018-09-21T05:54:23.958Z,17.36
2018-09-21T05:55:24.265Z,17.38
2018-09-21T05:56:24.539Z,17.41
2018-09-21T05:57:24.536Z,17.63
2018-09-21T05:58:24.529Z,17.70
2018-09-21T05:59:24.782Z,17.82
2018-09-21T06:00:27.135Z,17.82
2018-09-21T06:01:25.433Z,17.87
2018-09-21T06:02:25.479Z,17.82
2018-09-21T06:03:25.607Z,17.92
2018-09-21T06:04:25.673Z,17.94
2018-09-21T06:05:25.954Z,18.05
2018-09-21T06:06:26.104Z,18.13
2018-09-21T06:07:26.737Z,18.08
2018-09-21T06:08:26.488Z,18.20
2018-09-21T06:09:26.682Z,18.19
2018-09-21T06:10:26.994Z,18.33
2018-09-21T06:11:26.794Z,18.47
2018-09-21T06:12:26.950Z,18.56
2018-09-21T06:13:27.128Z,18.63
2018-09-21T06:14:27.479Z,18.74
2018-09-21T06:15:27.919Z,18.84
2018-09-21T06:16:27.777Z,18.99
2018-09-21T06:17:27.955Z,19.04
2018-09-21T06:18:28.621Z,19.18
2018-09-21T06:19:30.135Z,19.27
2018-09-21T06:20:30.692Z,19.37
2018-09-21T06:21:28.821Z,19.51
2018-09-21T06:22:29.413Z,19.58
2018-09-21T06:28:32.452Z,20.07
2018-09-21T06:33:13.652Z,20.55
2018-09-21T06:35:09.319Z,20.65
2018-09-21T06:36:10.159Z,20.77
2018-09-21T06:48:38.424Z,22.11
2018-09-21T06:49:38.698Z,22.29
2018-09-21T06:50:41.203Z,22.47
2018-09-21T06:52:39.074Z,22.54
2018-09-21T06:53:40.459Z,22.65
2018-09-21T06:54:41.113Z,22.91
2018-09-21T06:55:41.324Z,22.99
2018-09-21T06:56:40.024Z,23.15
2018-09-21T06:57:37.917Z,23.36
2018-09-21T06:58:37.732Z,23.56
2018-09-21T06:59:37.580Z,23.74
2018-09-21T07:00:37.555Z,23.96
2018-09-21T07:01:38.688Z,24.17
2018-09-21T07:02:38.250Z,24.50
2018-09-21T07:03:38.337Z,24.84
2018-09-21T07:04:38.283Z,24.85
2018-09-21T07:05:38.940Z,25.06
2018-09-21T07:06:38.679Z,25.46
2018-09-21T07:07:39.302Z,25.53
2018-09-21T07:08:39.282Z,25.75
2018-09-21T07:09:41.473Z,25.85
2018-09-21T07:10:39.330Z,25.78
2018-09-21T07:11:39.406Z,25.58
2018-09-21T07:12:39.595Z,25.41
2018-09-21T07:13:39.858Z,25.44
2018-09-21T07:14:40.019Z,25.47
2018-09-21T07:15:40.226Z,25.46
2018-09-21T07:16:40.284Z,25.41
2018-09-21T07:17:40.497Z,25.41
2018-09-21T07:18:40.782Z,25.51
2018-09-21T07:19:40.874Z,25.40
2018-09-21T07:20:40.991Z,25.23
2018-09-21T07:21:41.100Z,25.07
2018-09-21T07:22:41.343Z,24.99
2018-09-21T07:23:41.546Z,24.91
2018-09-21T07:24:41.758Z,24.93
2018-09-21T07:25:41.872Z,24.89
2018-09-21T07:26:42.062Z,24.81
2018-09-21T07:27:42.200Z,24.69
2018-09-21T07:28:42.474Z,24.65
2018-09-21T07:29:42.398Z,24.61
2018-09-21T07:30:42.626Z,24.61
2018-09-21T07:31:42.911Z,24.53
2018-09-21T07:32:43.055Z,24.48
2018-09-21T07:33:43.218Z,24.51
2018-09-21T07:34:43.613Z,24.53
2018-09-21T07:35:43.727Z,24.45
2018-09-21T07:36:43.828Z,24.29
2018-09-21T07:37:43.871Z,24.23
2018-09-21T07:38:43.971Z,24.16
2018-09-21T07:39:44.168Z,24.18
2018-09-21T07:40:44.435Z,24.28
2018-09-21T07:41:44.477Z,24.30
2018-09-21T07:42:44.731Z,24.35
2018-09-21T07:43:44.943Z,24.58
2018-09-21T07:44:45.120Z,24.76
2018-09-21T07:45:45.291Z,25.01
2018-09-21T07:46:45.297Z,25.21
2018-09-21T07:47:45.553Z,25.41
2018-09-21T07:48:45.821Z,25.55
2018-09-21T07:49:45.900Z,25.70
2018-09-21T07:50:46.151Z,25.85
2018-09-21T07:51:46.347Z,26.13
2018-09-21T07:52:47.225Z,26.23
2018-09-21T07:53:46.647Z,26.44
2018-09-21T07:54:46.837Z,26.56
2018-09-21T07:55:46.973Z,26.44
2018-09-21T07:56:47.161Z,26.26
2018-09-21T07:57:47.353Z,26.37
2018-09-21T07:58:47.573Z,26.56
2018-09-21T07:59:47.690Z,26.68
2018-09-21T08:00:47.852Z,26.80
2018-09-21T08:01:48.025Z,26.62
2018-09-21T08:02:49.032Z,26.60
2018-09-21T08:03:48.473Z,26.53
2018-09-21T08:04:48.637Z,26.29
2018-09-21T08:05:48.895Z,26.10
2018-09-21T08:06:49.002Z,25.96
2018-09-21T08:07:49.092Z,25.91
2018-09-21T08:08:49.267Z,25.69
2018-09-21T08:09:49.487Z,25.63
2018-09-21T08:10:49.619Z,25.63
2018-09-21T08:11:49.721Z,25.55
2018-09-21T08:12:50.162Z,25.58
2018-09-21T08:13:50.156Z,25.54
2018-09-21T08:14:50.227Z,25.60
2018-09-21T08:15:50.496Z,25.58
2018-09-21T08:16:50.644Z,25.58
2018-09-21T08:17:50.907Z,25.48
2018-09-21T08:18:50.934Z,25.36
2018-09-21T08:19:51.215Z,25.35
2018-09-21T08:20:51.308Z,25.43
2018-09-21T08:21:51.659Z,25.44
2018-09-21T08:22:51.823Z,25.44
2018-09-21T08:23:51.887Z,25.54
2018-09-21T08:24:52.069Z,25.48
2018-09-21T08:25:52.288Z,25.35
2018-09-21T08:26:52.567Z,25.21
2018-09-21T08:27:52.532Z,25.21
2018-09-21T08:28:52.740Z,25.28
2018-09-21T08:29:53.128Z,25.23
2018-09-21T08:30:53.127Z,25.32
2018-09-21T08:31:53.387Z,25.40
2018-09-21T08:32:53.602Z,25.63
2018-09-21T08:33:53.643Z,25.62
2018-09-21T08:34:53.818Z,25.63
2018-09-21T08:35:53.955Z,25.66
2018-09-21T08:36:54.204Z,25.41
2018-09-21T08:37:54.339Z,25.51
2018-09-21T08:38:54.450Z,25.58
2018-09-21T08:39:54.740Z,25.50
2018-09-21T08:40:54.884Z,25.60
2018-09-21T08:41:55.028Z,25.68
2018-09-21T08:42:55.742Z,25.72
2018-09-21T08:43:55.586Z,25.73
2018-09-21T08:44:55.793Z,25.66
2018-09-21T08:45:55.580Z,25.63
2018-09-21T08:46:55.984Z,25.59
2018-09-21T08:47:56.036Z,25.62
2018-09-21T08:48:56.238Z,25.59
2018-09-21T08:49:56.526Z,25.63
2018-09-21T08:50:56.742Z,25.66
2018-09-21T08:51:56.698Z,25.70
2018-09-21T08:52:57.027Z,25.73
2018-09-21T08:53:57.466Z,25.84
2018-09-21T08:54:57.392Z,26.00
2018-09-21T08:55:57.525Z,25.93
2018-09-21T08:56:57.771Z,25.96
2018-09-21T08:57:57.912Z,26.05
2018-09-21T08:58:58.144Z,26.10
2018-09-21T08:59:58.265Z,26.31
2018-09-21T09:00:58.686Z,26.36
2018-09-21T09:01:58.734Z,26.23
2018-09-21T09:02:58.887Z,26.34
2018-09-21T09:03:59.467Z,26.25
2018-09-21T09:04:59.169Z,26.05
2018-09-21T09:05:59.483Z,25.93
2018-09-21T09:06:59.588Z,25.93
2018-09-21T09:07:59.560Z,25.91
2018-09-21T09:08:59.959Z,25.90
2018-09-21T09:10:00.076Z,25.91
2018-09-21T09:11:00.318Z,25.88
2018-09-21T09:12:00.419Z,25.87
2018-09-21T09:13:00.590Z,25.85
2018-09-21T09:14:00.647Z,25.90
2018-09-21T09:15:00.888Z,25.98
2018-09-21T09:16:01.393Z,25.99
2018-09-21T09:17:01.268Z,25.84
2018-09-21T09:18:03.085Z,25.77
2018-09-21T09:19:01.514Z,25.70
2018-09-21T09:20:01.562Z,25.78
2018-09-21T09:21:01.982Z,25.81
2018-09-21T09:22:01.997Z,25.90
2018-09-21T09:23:02.264Z,26.13
2018-09-21T09:24:02.490Z,26.25
2018-09-21T09:25:02.609Z,26.31
2018-09-21T09:26:02.739Z,26.37
2018-09-21T09:27:02.856Z,26.70
2018-09-21T09:28:03.118Z,26.75
2018-09-21T09:29:03.113Z,26.62
2018-09-21T09:30:11.655Z,26.60
2018-09-21T09:31:04.019Z,26.44
2018-09-21T09:32:04.396Z,26.43
2018-09-21T09:33:04.024Z,26.36
2018-09-21T09:34:04.067Z,26.31
2018-09-21T09:35:04.413Z,26.16
2018-09-21T09:36:04.462Z,26.05
2018-09-21T09:37:04.977Z,26.00
2018-09-21T09:38:05.555Z,25.98
2018-09-21T09:39:06.921Z,25.96
2018-09-21T09:40:06.050Z,25.99
2018-09-21T09:41:05.654Z,26.05
2018-09-21T09:42:05.684Z,26.05
2018-09-21T09:43:06.040Z,25.98
2018-09-21T09:44:06.018Z,26.03
2018-09-21T09:45:06.251Z,26.23
2018-09-21T09:46:06.428Z,26.34
2018-09-21T09:47:07.147Z,26.37
2018-09-21T09:48:06.704Z,26.65
2018-09-21T09:49:07.146Z,27.15
2018-09-21T09:50:07.098Z,27.37
2018-09-21T09:51:07.295Z,27.68
2018-09-21T09:52:07.439Z,28.19
2018-09-21T09:53:07.905Z,28.62
2018-09-21T09:54:07.738Z,28.69
2018-09-21T09:55:08.195Z,28.82
2018-09-21T09:56:08.333Z,28.82
2018-09-21T09:57:08.462Z,29.24
2018-09-21T09:58:08.559Z,29.38
2018-09-21T09:59:09.190Z,29.56
2018-09-21T10:00:09.098Z,29.36
2018-09-21T10:01:09.014Z,28.86
2018-09-21T10:02:09.249Z,28.38
2018-09-21T10:03:09.388Z,28.30
2018-09-21T10:04:09.591Z,28.11
2018-09-21T10:05:09.733Z,27.70
2018-09-21T10:06:10.125Z,27.68
2018-09-21T10:07:10.259Z,27.85
2018-09-21T10:08:10.394Z,27.96
2018-09-21T10:09:10.595Z,27.96
2018-09-21T10:10:10.831Z,27.48
2018-09-21T10:11:10.842Z,27.12
2018-09-21T10:12:11.159Z,27.03
2018-09-21T10:13:11.368Z,26.90
2018-09-21T10:14:11.367Z,26.92
2018-09-21T10:15:11.577Z,26.74
2018-09-21T10:16:11.830Z,26.70
2018-09-21T10:17:11.971Z,26.68
2018-09-21T10:18:12.039Z,26.52
2018-09-21T10:19:12.302Z,26.34
2018-09-21T10:20:13.175Z,26.23
2018-09-21T10:21:12.816Z,26.22
2018-09-21T10:22:12.673Z,26.19
2018-09-21T10:23:12.862Z,26.28
2018-09-21T10:24:13.246Z,26.22
2018-09-21T10:25:13.483Z,26.38
2018-09-21T10:26:14.319Z,26.37
2018-09-21T10:27:13.665Z,26.22
2018-09-21T10:28:14.259Z,26.23
2018-09-21T10:29:14.419Z,26.28
2018-09-21T10:30:14.183Z,26.47
2018-09-21T10:31:14.355Z,26.48
2018-09-21T10:32:14.524Z,26.47
2018-09-21T10:33:14.706Z,26.47
2018-09-21T10:34:14.866Z,26.36
2018-09-21T10:35:15.004Z,26.40
2018-09-21T10:36:15.260Z,26.52
2018-09-21T10:37:15.545Z,26.47
2018-09-21T10:38:15.705Z,26.55
2018-09-21T10:39:15.781Z,26.84
2018-09-21T10:40:16.039Z,26.77
2018-09-21T10:41:16.129Z,26.77
2018-09-21T10:42:16.692Z,26.75
2018-09-21T10:43:16.689Z,26.51
2018-09-21T10:44:16.890Z,26.29
2018-09-21T10:45:17.359Z,26.21
2018-09-21T10:46:17.401Z,26.10
2018-09-21T10:47:17.410Z,26.05
2018-09-21T10:48:17.866Z,25.83
2018-09-21T10:49:17.651Z,25.80
2018-09-21T10:50:17.963Z,25.84
2018-09-21T10:51:18.158Z,25.78
2018-09-21T10:52:18.083Z,25.70
2018-09-21T10:53:18.313Z,25.72
2018-09-21T10:54:18.571Z,25.48
2018-09-21T10:55:18.864Z,25.43
2018-09-21T10:56:19.058Z,25.33
2018-09-21T10:57:19.104Z,25.36
2018-09-21T10:58:19.509Z,25.35
2018-09-21T10:59:19.614Z,25.32
2018-09-21T11:00:19.639Z,25.43
2018-09-21T11:01:19.740Z,25.50
2018-09-21T11:02:20.023Z,25.40
2018-09-21T11:03:20.166Z,25.33
2018-09-21T11:04:20.350Z,25.28
2018-09-21T11:05:20.509Z,25.36
2018-09-21T11:06:20.709Z,25.43
2018-09-21T11:07:21.000Z,25.55
2018-09-21T11:08:21.121Z,25.46
2018-09-21T11:09:21.236Z,25.53
2018-09-21T11:10:21.478Z,25.54
2018-09-21T11:11:21.687Z,25.54
2018-09-21T11:12:21.783Z,25.48
2018-09-21T11:13:21.924Z,25.55
2018-09-21T11:14:22.209Z,25.58
2018-09-21T11:15:22.287Z,25.58
2018-09-21T11:16:22.517Z,25.58
2018-09-21T11:17:22.638Z,25.58
2018-09-21T11:18:22.846Z,25.58
2018-09-21T11:19:23.067Z,25.40
2018-09-21T11:20:24.074Z,25.31
2018-09-21T11:21:23.367Z,25.26
2018-09-21T11:22:23.638Z,25.43
2018-09-21T11:23:23.754Z,25.54
2018-09-21T11:24:23.951Z,25.60
2018-09-21T11:25:24.054Z,25.43
2018-09-21T11:26:24.082Z,25.62
2018-09-21T11:27:24.382Z,25.58
2018-09-21T11:28:24.462Z,25.81
2018-09-21T11:29:24.822Z,25.78
2018-09-21T11:30:25.642Z,25.70
2018-09-21T11:31:25.009Z,25.81
2018-09-21T11:32:25.193Z,25.83
2018-09-21T11:33:25.467Z,25.80
2018-09-21T11:34:25.501Z,25.95
2018-09-21T11:35:25.743Z,25.98
2018-09-21T11:36:25.850Z,25.80
2018-09-21T11:37:26.061Z,25.81
2018-09-21T11:38:26.411Z,25.80
2018-09-21T11:39:27.084Z,25.87
2018-09-21T11:40:26.775Z,25.80
2018-09-21T11:41:26.865Z,25.83
2018-09-21T11:43:26.982Z,25.78
2018-09-21T11:44:27.311Z,25.73
2018-09-21T11:45:27.312Z,25.78
2018-09-21T11:46:27.571Z,25.78
2018-09-21T11:47:27.725Z,25.68
2018-09-21T11:48:27.953Z,25.66
2018-09-21T11:49:28.152Z,25.51
2018-09-21T11:50:28.536Z,25.58
2018-09-21T11:51:28.363Z,25.58
2018-09-21T11:52:28.643Z,25.50
2018-09-21T11:53:28.712Z,25.48
2018-09-21T11:54:28.946Z,25.33
2018-09-21T11:55:29.172Z,25.28
2018-09-21T11:56:29.347Z,25.04
2018-09-21T11:57:29.594Z,25.06
2018-09-21T11:58:29.647Z,24.91
2018-09-21T11:59:29.743Z,24.98
2018-09-21T12:00:30.004Z,24.99
2018-09-21T12:01:30.239Z,24.93
2018-09-21T12:02:30.315Z,24.98
2018-09-21T12:03:30.581Z,24.88
2018-09-21T12:04:30.697Z,24.91
2018-09-21T12:05:30.934Z,24.95
2018-09-21T12:06:31.155Z,24.85
2018-09-21T12:07:31.437Z,24.84
2018-09-21T12:08:31.446Z,24.78
2018-09-21T12:09:31.577Z,24.70
2018-09-21T12:10:32.019Z,24.88
2018-09-21T12:11:32.169Z,24.93
2018-09-21T12:12:32.270Z,25.13
2018-09-21T12:13:32.441Z,25.35
2018-09-21T12:14:32.530Z,25.41
2018-09-21T12:15:32.717Z,25.58
2018-09-21T12:16:32.773Z,25.63
2018-09-21T12:17:32.959Z,25.69
2018-09-21T12:18:33.900Z,25.77
2018-09-21T12:19:33.368Z,25.88
2018-09-21T12:20:33.541Z,26.00
2018-09-21T12:21:35.095Z,25.90
2018-09-21T12:22:33.816Z,25.96
2018-09-21T12:23:33.976Z,25.95
2018-09-21T12:24:34.149Z,26.18
2018-09-21T12:25:34.249Z,26.37
2018-09-21T12:26:34.452Z,26.47
2018-09-21T12:27:34.576Z,26.63
2018-09-21T12:28:34.825Z,26.65
2018-09-21T12:34:51.979Z,25.87
2018-09-21T12:35:51.079Z,25.72
2018-09-21T12:36:51.497Z,25.46
2018-09-21T12:37:49.762Z,25.29
2018-09-21T12:40:24.672Z,24.88
2018-09-21T12:41:27.690Z,24.78
2018-09-21T12:43:11.735Z,24.73
2018-09-21T12:43:28.888Z,24.57
2018-09-21T12:44:26.355Z,24.43
2018-09-21T12:45:26.047Z,24.40
2018-09-21T12:46:26.105Z,24.33
2018-09-21T12:47:25.673Z,24.30
2018-09-21T12:48:26.879Z,24.30
2018-09-21T12:49:27.434Z,24.17
2018-09-21T12:50:26.735Z,24.10
2018-09-21T12:51:27.568Z,24.02
2018-09-21T12:52:27.108Z,23.46
2018-09-21T12:53:27.339Z,23.23
2018-09-21T12:54:24.973Z,22.84
2018-09-21T12:55:24.767Z,22.50
2018-09-21T12:56:25.018Z,22.26
2018-09-21T12:57:25.227Z,21.73
2018-09-21T12:58:25.486Z,21.27
2018-09-21T12:59:25.618Z,20.84
2018-09-21T13:00:25.649Z,20.47
2018-09-21T13:01:26.042Z,20.16
2018-09-21T13:02:26.010Z,19.71
2018-09-21T13:03:26.063Z,19.27
2018-09-21T13:04:26.385Z,18.73
2018-09-21T13:05:26.531Z,18.52
2018-09-21T13:06:26.720Z,18.44
2018-09-21T13:07:26.852Z,18.20
2018-09-21T13:08:26.942Z,18.05
2018-09-21T13:09:27.134Z,17.90
2018-09-21T13:10:27.410Z,17.82
2018-09-21T13:11:27.489Z,17.72
2018-09-21T13:12:27.649Z,17.64
2018-09-21T13:13:27.945Z,17.52
2018-09-21T13:14:28.243Z,17.63
2018-09-21T13:15:28.418Z,17.54
2018-09-21T13:16:28.619Z,17.38
2018-09-21T13:17:28.650Z,17.36
2018-09-21T13:18:28.666Z,17.45
2018-09-21T13:19:28.927Z,17.33
2018-09-21T13:20:29.071Z,17.30
2018-09-21T13:21:29.412Z,17.27
2018-09-21T13:22:29.764Z,17.12
2018-09-21T13:23:29.767Z,17.19
2018-09-21T13:24:29.918Z,17.19
2018-09-21T13:25:30.698Z,17.16
2018-09-21T13:26:30.695Z,17.06
2018-09-21T13:27:30.677Z,17.08
2018-09-21T13:28:31.180Z,16.94
2018-09-21T13:29:31.410Z,16.81
2018-09-21T13:30:30.977Z,16.79
2018-09-21T13:31:31.188Z,16.75
2018-09-21T13:32:31.413Z,16.74
2018-09-21T13:33:31.517Z,16.76
2018-09-21T13:34:31.701Z,16.79
2018-09-21T13:35:31.901Z,16.83
2018-09-21T13:36:31.930Z,16.79
2018-09-21T13:37:32.150Z,16.68
2018-09-21T13:38:32.323Z,16.57
2018-09-21T13:39:32.607Z,16.61
2018-09-21T13:40:32.796Z,16.35
2018-09-21T13:41:32.907Z,16.31
2018-09-21T13:42:33.135Z,16.36
2018-09-21T13:43:33.204Z,16.36
2018-09-21T13:44:33.413Z,16.17
2018-09-21T13:45:33.793Z,16.13
2018-09-21T13:46:33.922Z,15.94
2018-09-21T13:47:34.081Z,15.91
2018-09-21T13:48:34.518Z,15.79
2018-09-21T13:49:34.359Z,15.80
2018-09-21T13:50:34.606Z,15.72
2018-09-21T13:51:34.719Z,15.68
2018-09-21T13:52:34.971Z,15.62
2018-09-21T13:54:36.157Z,15.59
2018-09-21T13:55:35.314Z,15.52
2018-09-21T13:56:35.973Z,15.62
2018-09-21T13:57:35.632Z,15.67
2018-09-21T13:58:35.731Z,15.64
2018-09-21T13:59:35.990Z,15.58
2018-09-21T14:00:36.157Z,15.62
2018-09-21T14:01:36.352Z,15.54
2018-09-21T14:02:36.478Z,15.59
2018-09-21T14:03:36.712Z,15.62
2018-09-21T14:04:36.922Z,15.54
2018-09-21T14:05:37.142Z,15.58
2018-09-21T14:06:37.285Z,15.59
2018-09-21T14:07:37.424Z,15.46
2018-09-21T14:08:37.580Z,15.43
2018-09-21T14:09:37.750Z,15.54
2018-09-21T14:10:37.856Z,15.51
2018-09-21T14:11:38.120Z,15.58
2018-09-21T14:12:38.153Z,15.47
2018-09-21T14:13:38.326Z,15.59
2018-09-21T14:14:38.609Z,15.44
2018-09-21T14:15:38.710Z,15.43
2018-09-21T14:16:38.824Z,15.44
2018-09-21T14:17:38.969Z,15.52
2018-09-21T14:18:39.223Z,15.59
2018-09-21T14:19:39.307Z,15.72
2018-09-21T14:20:39.619Z,15.61
2018-09-21T14:21:39.996Z,15.77
2018-09-21T14:22:40.851Z,15.70
2018-09-21T14:23:40.252Z,15.70
2018-09-21T14:24:40.428Z,15.55
2018-09-21T14:25:40.451Z,15.61
2018-09-21T14:26:40.624Z,15.49
2018-09-21T14:27:40.764Z,15.61
2018-09-21T14:28:40.999Z,15.59
2018-09-21T14:29:41.025Z,15.54
2018-09-21T14:30:41.287Z,15.59
2018-09-21T14:31:41.300Z,15.64
2018-09-21T14:32:41.638Z,15.58
2018-09-21T14:33:41.772Z,15.59
2018-09-21T14:34:42.646Z,15.68
2018-09-21T14:35:42.190Z,15.76
2018-09-21T14:36:42.372Z,15.70
2018-09-21T14:37:42.486Z,15.73
2018-09-21T14:38:42.616Z,15.70
2018-09-21T14:39:42.831Z,15.76
2018-09-21T14:40:42.868Z,15.82
2018-09-21T14:41:43.134Z,15.72
2018-09-21T14:42:43.341Z,15.76
2018-09-21T14:43:43.513Z,15.90
2018-09-21T14:44:43.621Z,15.76
2018-09-21T14:45:43.835Z,15.86
2018-09-21T14:46:44.144Z,15.92
2018-09-21T14:47:44.448Z,15.88
2018-09-21T14:48:44.479Z,15.86
2018-09-21T14:49:44.512Z,15.83
2018-09-21T14:50:44.778Z,15.82
2018-09-21T14:51:44.895Z,15.94
2018-09-21T14:52:44.977Z,15.94
2018-09-21T14:53:45.187Z,15.97
2018-09-21T14:54:45.330Z,16.04
2018-09-21T14:55:45.569Z,15.98
2018-09-21T14:56:45.716Z,15.97
2018-09-21T14:57:45.861Z,15.92
2018-09-21T14:58:46.072Z,16.04
2018-09-21T14:59:46.225Z,16.04
2018-09-21T15:00:46.304Z,16.02
2018-09-21T15:01:46.458Z,16.01
2018-09-21T15:02:46.744Z,16.04
2018-09-21T15:03:46.772Z,16.01
2018-09-21T15:04:47.068Z,15.88
2018-09-21T15:05:47.379Z,15.75
2018-09-21T15:06:47.468Z,15.59
2018-09-21T15:07:47.658Z,15.59
2018-09-21T15:08:47.766Z,15.57
2018-09-21T15:09:47.838Z,15.68
2018-09-21T15:10:48.208Z,15.61
2018-09-21T15:11:48.498Z,15.54
2018-09-21T15:12:48.509Z,15.59
2018-09-21T15:13:48.633Z,15.47
2018-09-21T15:14:48.811Z,15.46
2018-09-21T15:15:49.588Z,15.33
2018-09-21T15:16:49.120Z,15.33
2018-09-21T15:17:49.243Z,15.37
2018-09-21T15:18:50.445Z,15.29
2018-09-21T15:19:50.103Z,15.35
2018-09-21T15:20:50.016Z,15.27
2018-09-21T15:21:49.939Z,15.22
2018-09-21T15:23:50.510Z,15.22
2018-09-21T15:24:51.032Z,15.19
2018-09-21T15:25:50.601Z,15.21
2018-09-21T15:26:51.635Z,15.29
2018-09-21T15:27:51.050Z,15.31
2018-09-21T15:28:51.126Z,15.33
2018-09-21T15:29:51.314Z,15.24
2018-09-21T15:30:51.525Z,15.15
2018-09-21T15:31:51.742Z,15.19
2018-09-21T15:32:51.891Z,15.21
2018-09-21T15:33:51.980Z,15.06
2018-09-21T15:34:52.217Z,15.07
2018-09-21T15:35:52.360Z,15.10
2018-09-21T15:36:52.533Z,15.09
2018-09-21T15:37:52.711Z,15.06
2018-09-21T15:38:52.964Z,15.15
2018-09-21T15:39:53.223Z,15.09
2018-09-21T15:40:53.177Z,15.06
2018-09-21T15:41:53.412Z,15.09
2018-09-21T15:42:53.609Z,15.09
2018-09-21T15:43:53.655Z,15.14
2018-09-21T15:44:53.959Z,15.19
2018-09-21T15:45:54.026Z,15.27
2018-09-21T15:46:54.264Z,15.33
2018-09-21T15:47:54.446Z,15.44
2018-09-21T15:48:54.552Z,15.51
2018-09-21T15:49:54.659Z,15.43
2018-09-21T15:50:54.955Z,15.52
2018-09-21T15:51:55.130Z,15.52
2018-09-21T15:52:55.358Z,15.36
2018-09-21T15:53:55.980Z,15.36
2018-09-21T15:54:55.637Z,15.37
2018-09-21T15:55:55.786Z,15.47
2018-09-21T15:56:55.932Z,15.47
2018-09-21T15:57:56.164Z,15.37
2018-09-21T15:58:56.349Z,15.36
2018-09-21T15:59:56.397Z,15.36
2018-09-21T16:00:56.554Z,15.44
2018-09-21T16:01:56.681Z,15.39
2018-09-21T16:02:56.811Z,15.46
2018-09-21T16:03:57.169Z,15.44
2018-09-21T16:04:57.221Z,15.42
2018-09-21T16:05:57.414Z,15.36
2018-09-21T16:06:57.674Z,15.36
2018-09-21T16:07:57.745Z,15.35
2018-09-21T16:08:57.830Z,15.39
2018-09-21T16:09:57.960Z,15.39
2018-09-21T16:10:58.163Z,15.39
2018-09-21T16:11:58.471Z,15.42
2018-09-21T16:12:58.470Z,15.40
2018-09-21T16:13:58.894Z,15.37
2018-09-21T16:14:58.897Z,15.36
2018-09-21T16:15:58.973Z,15.37
2018-09-21T16:16:59.162Z,15.17
2018-09-21T16:17:59.440Z,15.24
2018-09-21T16:18:59.831Z,15.19
2018-09-21T16:20:00.679Z,15.14
2018-09-21T16:20:59.852Z,15.11
2018-09-21T16:22:00.175Z,15.18
2018-09-21T16:23:00.218Z,15.17
2018-09-21T16:24:00.436Z,15.14
2018-09-21T16:25:00.623Z,15.11
2018-09-21T16:26:00.813Z,15.11
2018-09-21T16:27:00.827Z,15.11
2018-09-21T16:28:01.052Z,15.09